createdAt,value
2022-08-17T00:00:49.413Z,0.00
2022-08-17T00:01:51.467Z,0.00
2022-08-17T00:02:36.972Z,0.00
2022-08-17T00:03:36.918Z,0.00
2022-08-17T00:04:36.917Z,0.00
2022-08-17T00:05:36.910Z,0.00
2022-08-17T00:06:36.909Z,0.00
2022-08-17T00:07:36.901Z,0.00
2022-08-17T00:08:36.901Z,0.00
2022-08-17T00:09:36.902Z,0.00
2022-08-17T00:10:36.892Z,0.00
2022-08-17T00:11:36.887Z,0.00
2022-08-17T00:12:43.116Z,0.00
2022-08-17T00:13:36.877Z,0.00
2022-08-17T00:14:36.875Z,0.00
2022-08-17T00:15:36.869Z,0.00
2022-08-17T00:16:56.140Z,0.00
2022-08-17T00:17:36.861Z,0.00
2022-08-17T00:19:02.000Z,0.00
2022-08-17T00:19:36.852Z,0.00
2022-08-17T00:20:36.852Z,0.00
2022-08-17T00:22:32.942Z,0.00
2022-08-17T00:22:36.989Z,0.00
2022-08-17T00:23:36.835Z,0.00
2022-08-17T00:24:36.834Z,0.00
2022-08-17T00:25:36.829Z,0.00
2022-08-17T00:26:45.208Z,0.00
2022-08-17T00:27:36.834Z,0.00
2022-08-17T00:28:36.817Z,0.00
2022-08-17T00:29:36.812Z,0.00
2022-08-17T00:30:53.072Z,0.00
2022-08-17T00:31:36.801Z,0.00
2022-08-17T00:33:12.524Z,0.00
2022-08-17T00:33:36.793Z,0.00
2022-08-17T00:34:36.792Z,0.00
2022-08-17T00:35:36.785Z,0.00
2022-08-17T00:36:36.785Z,0.00
2022-08-17T00:37:36.778Z,0.00
2022-08-17T00:38:36.776Z,0.00
2022-08-17T00:39:36.841Z,0.00
2022-08-17T00:40:39.802Z,0.00
2022-08-17T00:41:36.763Z,0.00
2022-08-17T00:42:36.760Z,0.00
2022-08-17T00:43:36.753Z,0.00
2022-08-17T00:44:36.751Z,0.00
2022-08-17T00:45:36.744Z,0.00
2022-08-17T00:46:36.743Z,0.00
2022-08-17T00:47:36.735Z,0.00
2022-08-17T00:48:36.736Z,0.00
2022-08-17T00:49:36.729Z,0.00
2022-08-17T00:50:36.735Z,0.00
2022-08-17T00:51:36.719Z,0.00
2022-08-17T00:52:36.717Z,0.00
2022-08-17T00:53:36.715Z,0.00
2022-08-17T00:54:41.863Z,0.00
2022-08-17T00:55:36.703Z,0.00
2022-08-17T00:56:36.799Z,0.00
2022-08-17T00:57:36.693Z,0.00
2022-08-17T00:58:36.836Z,0.00
2022-08-17T00:59:36.684Z,0.00
2022-08-17T01:00:36.682Z,0.00
2022-08-17T01:01:36.731Z,0.00
2022-08-17T01:02:42.434Z,0.00
2022-08-17T01:03:36.684Z,0.00
2022-08-17T01:04:36.667Z,0.00
2022-08-17T01:05:36.760Z,0.00
2022-08-17T01:06:36.657Z,0.00
2022-08-17T01:07:37.825Z,0.00
2022-08-17T01:08:36.656Z,0.00
2022-08-17T01:09:36.656Z,0.00
2022-08-17T01:11:00.084Z,0.00
2022-08-17T01:11:36.632Z,0.00
2022-08-17T01:12:36.630Z,0.00
2022-08-17T01:13:40.671Z,0.00
2022-08-17T01:14:36.624Z,0.00
2022-08-17T01:15:36.616Z,0.00
2022-08-17T01:16:36.614Z,0.00
2022-08-17T01:17:36.606Z,0.00
2022-08-17T01:18:36.605Z,0.00
2022-08-17T01:19:36.596Z,0.00
2022-08-17T01:20:47.877Z,0.00
2022-08-17T01:21:36.586Z,0.00
2022-08-17T01:22:36.585Z,0.00
2022-08-17T01:23:36.578Z,0.00
2022-08-17T01:24:36.574Z,0.00
2022-08-17T01:25:36.575Z,0.00
2022-08-17T01:26:36.569Z,0.00
2022-08-17T01:27:36.559Z,0.00
2022-08-17T01:28:54.560Z,0.00
2022-08-17T01:29:36.550Z,0.00
2022-08-17T01:30:58.895Z,0.00
2022-08-17T01:31:36.542Z,0.00
2022-08-17T01:32:36.539Z,0.00
2022-08-17T01:33:36.535Z,0.00
2022-08-17T01:34:42.939Z,0.00
2022-08-17T01:35:36.523Z,0.00
2022-08-17T01:36:36.521Z,0.00
2022-08-17T01:37:36.514Z,0.00
2022-08-17T01:38:36.512Z,0.00
2022-08-17T01:39:36.612Z,0.00
2022-08-17T01:40:36.502Z,0.00
2022-08-17T01:41:36.497Z,0.00
2022-08-17T01:42:36.496Z,0.00
2022-08-17T01:43:36.486Z,0.00
2022-08-17T01:44:36.486Z,0.00
2022-08-17T01:45:36.478Z,0.00
2022-08-17T01:46:36.478Z,0.00
2022-08-17T01:47:36.468Z,0.00
2022-08-17T01:48:36.467Z,0.00
2022-08-17T01:49:36.459Z,0.00
2022-08-17T01:50:36.458Z,0.00
2022-08-17T01:51:36.450Z,0.00
2022-08-17T01:52:36.448Z,0.00
2022-08-17T01:53:36.442Z,0.00
2022-08-17T01:54:36.441Z,0.00
2022-08-17T01:55:36.432Z,0.00
2022-08-17T01:56:36.430Z,0.00
2022-08-17T01:57:36.423Z,0.00
2022-08-17T01:58:36.421Z,0.00
2022-08-17T01:59:36.414Z,0.00
2022-08-17T02:00:46.850Z,0.00
2022-08-17T02:01:36.511Z,0.00
2022-08-17T02:02:36.403Z,0.00
2022-08-17T02:03:36.396Z,0.00
2022-08-17T02:04:36.393Z,0.00
2022-08-17T02:05:36.386Z,0.00
2022-08-17T02:06:45.146Z,0.00
2022-08-17T02:07:47.981Z,0.00
2022-08-17T02:08:36.989Z,0.00
2022-08-17T02:09:36.368Z,0.00
2022-08-17T02:10:36.367Z,0.00
2022-08-17T02:11:36.359Z,0.00
2022-08-17T02:12:38.443Z,0.00
2022-08-17T02:13:36.351Z,0.00
2022-08-17T02:14:36.350Z,0.00
2022-08-17T02:15:36.339Z,0.00
2022-08-17T02:16:37.906Z,0.00
2022-08-17T02:17:36.337Z,0.00
2022-08-17T02:18:36.330Z,0.00
2022-08-17T02:19:36.323Z,0.00
2022-08-17T02:20:42.317Z,0.00
2022-08-17T02:21:36.313Z,0.00
2022-08-17T02:22:36.314Z,0.00
2022-08-17T02:23:36.311Z,0.00
2022-08-17T02:24:58.960Z,0.00
2022-08-17T02:25:36.312Z,0.00
2022-08-17T02:26:36.295Z,0.00
2022-08-17T02:27:36.290Z,0.00
2022-08-17T02:28:36.288Z,0.00
2022-08-17T02:29:36.280Z,0.00
2022-08-17T02:31:02.202Z,0.00
2022-08-17T02:31:36.268Z,0.00
2022-08-17T02:32:36.267Z,0.00
2022-08-17T02:33:42.716Z,0.00
2022-08-17T02:34:36.273Z,0.00
2022-08-17T02:35:36.253Z,0.00
2022-08-17T02:36:36.250Z,0.00
2022-08-17T02:37:36.245Z,0.00
2022-08-17T02:38:36.240Z,0.00
2022-08-17T02:39:36.313Z,0.00
2022-08-17T02:40:36.772Z,0.00
2022-08-17T02:41:36.226Z,0.00
2022-08-17T02:42:36.223Z,0.00
2022-08-17T02:43:36.215Z,0.00
2022-08-17T02:44:39.895Z,0.00
2022-08-17T02:45:36.207Z,0.00
2022-08-17T02:46:36.205Z,0.00
2022-08-17T02:47:36.208Z,0.00
2022-08-17T02:48:36.197Z,0.00
2022-08-17T02:49:36.190Z,0.00
2022-08-17T02:50:36.189Z,0.00
2022-08-17T02:51:36.182Z,0.00
2022-08-17T02:52:42.002Z,0.00
2022-08-17T02:53:36.343Z,0.00
2022-08-17T02:54:41.442Z,0.00
2022-08-17T02:55:36.168Z,0.00
2022-08-17T02:56:36.161Z,0.00
2022-08-17T02:57:36.156Z,0.00
2022-08-17T02:58:36.323Z,0.00
2022-08-17T02:59:36.147Z,0.00
2022-08-17T03:00:36.144Z,0.00
2022-08-17T03:01:36.186Z,0.00
2022-08-17T03:02:36.136Z,0.00
2022-08-17T03:03:36.129Z,0.00
2022-08-17T03:04:36.129Z,0.00
2022-08-17T03:05:36.124Z,0.00
2022-08-17T03:06:36.117Z,0.00
2022-08-17T03:07:36.110Z,0.00
2022-08-17T03:08:36.108Z,0.00
2022-08-17T03:09:36.107Z,0.00
2022-08-17T03:10:36.101Z,0.00
2022-08-17T03:11:36.095Z,0.00
2022-08-17T03:12:36.092Z,0.00
2022-08-17T03:13:36.087Z,0.00
2022-08-17T03:14:41.135Z,0.00
2022-08-17T03:15:36.079Z,0.00
2022-08-17T03:16:36.075Z,0.00
2022-08-17T03:17:36.070Z,0.00
2022-08-17T03:18:36.067Z,0.00
2022-08-17T03:19:36.059Z,0.00
2022-08-17T03:20:36.057Z,0.00
2022-08-17T03:21:36.051Z,0.00
2022-08-17T03:22:38.559Z,0.00
2022-08-17T03:23:36.042Z,0.00
2022-08-17T03:24:36.042Z,0.00
2022-08-17T03:25:36.033Z,0.00
2022-08-17T03:26:36.037Z,0.00
2022-08-17T03:27:36.025Z,0.00
2022-08-17T03:28:36.023Z,0.00
2022-08-17T03:29:36.019Z,0.00
2022-08-17T03:30:36.015Z,0.00
2022-08-17T03:31:37.042Z,0.00
2022-08-17T03:32:36.008Z,0.00
2022-08-17T03:33:36.008Z,0.00
2022-08-17T03:34:35.997Z,0.00
2022-08-17T03:35:35.993Z,0.00
2022-08-17T03:36:36.265Z,0.00
2022-08-17T03:37:35.983Z,0.00
2022-08-17T03:38:39.218Z,0.00
2022-08-17T03:39:36.043Z,0.00
2022-08-17T03:40:58.020Z,0.00
2022-08-17T03:41:35.967Z,0.00
2022-08-17T03:42:35.964Z,0.00
2022-08-17T03:43:35.957Z,0.00
2022-08-17T03:44:35.956Z,0.00
2022-08-17T03:45:35.953Z,0.00
2022-08-17T03:46:35.951Z,0.00
2022-08-17T03:47:35.940Z,0.00
2022-08-17T03:48:35.938Z,0.00
2022-08-17T03:49:35.933Z,0.00
2022-08-17T03:50:35.932Z,0.00
2022-08-17T03:51:35.976Z,0.00
2022-08-17T03:52:35.921Z,0.00
2022-08-17T03:53:35.917Z,0.00
2022-08-17T03:54:35.912Z,0.00
2022-08-17T03:55:36.507Z,0.00
2022-08-17T03:56:35.903Z,0.00
2022-08-17T03:57:35.902Z,0.00
2022-08-17T03:58:35.895Z,0.00
2022-08-17T03:59:35.892Z,0.00
2022-08-17T04:00:35.889Z,0.00
2022-08-17T04:01:35.963Z,0.00
2022-08-17T04:02:35.878Z,0.00
2022-08-17T04:03:35.874Z,0.00
2022-08-17T04:04:35.870Z,0.00
2022-08-17T04:05:35.866Z,0.00
2022-08-17T04:06:35.860Z,0.00
2022-08-17T04:07:35.855Z,0.00
2022-08-17T04:08:35.850Z,0.00
2022-08-17T04:09:35.848Z,0.00
2022-08-17T04:10:41.291Z,0.00
2022-08-17T04:11:35.842Z,0.00
2022-08-17T04:12:35.833Z,0.00
2022-08-17T04:13:35.832Z,0.00
2022-08-17T04:14:35.825Z,0.00
2022-08-17T04:15:35.821Z,0.00
2022-08-17T04:16:35.816Z,0.00
2022-08-17T04:17:35.914Z,0.00
2022-08-17T04:18:35.810Z,0.00
2022-08-17T04:19:35.805Z,0.00
2022-08-17T04:20:35.800Z,0.00
2022-08-17T04:21:35.799Z,0.00
2022-08-17T04:22:35.790Z,0.00
2022-08-17T04:23:35.789Z,0.00
2022-08-17T04:24:35.781Z,0.00
2022-08-17T04:25:35.779Z,0.00
2022-08-17T04:26:54.152Z,0.00
2022-08-17T04:27:35.769Z,0.00
2022-08-17T04:28:35.762Z,0.00
2022-08-17T04:29:55.072Z,0.00
2022-08-17T04:30:35.756Z,5.63
2022-08-17T04:31:35.751Z,5.63
2022-08-17T04:33:00.440Z,5.63
2022-08-17T04:33:35.746Z,5.63
2022-08-17T04:34:35.738Z,5.63
2022-08-17T04:35:35.735Z,11.25
2022-08-17T04:36:35.729Z,11.25
2022-08-17T04:37:35.726Z,11.25
2022-08-17T04:38:35.721Z,11.25
2022-08-17T04:39:35.757Z,11.25
2022-08-17T04:40:35.719Z,11.25
2022-08-17T04:41:35.710Z,11.25
2022-08-17T04:42:35.704Z,11.25
2022-08-17T04:43:35.702Z,11.25
2022-08-17T04:44:37.494Z,16.88
2022-08-17T04:45:35.691Z,16.88
2022-08-17T04:46:35.685Z,16.88
2022-08-17T04:47:35.683Z,16.88
2022-08-17T04:48:37.415Z,16.88
2022-08-17T04:49:35.676Z,16.88
2022-08-17T04:50:35.670Z,16.88
2022-08-17T04:51:35.667Z,16.88
2022-08-17T04:52:43.645Z,16.88
2022-08-17T04:53:35.659Z,16.88
2022-08-17T04:54:35.652Z,16.88
2022-08-17T04:55:35.649Z,11.25
2022-08-17T04:56:35.642Z,11.25
2022-08-17T04:57:38.462Z,16.88
2022-08-17T04:58:35.635Z,16.88
2022-08-17T04:59:35.633Z,11.25
2022-08-17T05:00:35.628Z,11.25
2022-08-17T05:01:35.682Z,11.25
2022-08-17T05:02:35.621Z,11.25
2022-08-17T05:03:35.617Z,11.25
2022-08-17T05:04:35.637Z,11.25
2022-08-17T05:05:35.611Z,16.88
2022-08-17T05:06:35.606Z,16.88
2022-08-17T05:07:35.600Z,16.88
2022-08-17T05:08:35.597Z,22.50
2022-08-17T05:09:35.593Z,22.50
2022-08-17T05:10:35.586Z,22.50
2022-08-17T05:11:35.586Z,22.50
2022-08-17T05:12:35.578Z,22.50
2022-08-17T05:13:35.677Z,22.50
2022-08-17T05:14:35.573Z,22.50
2022-08-17T05:15:36.048Z,22.50
2022-08-17T05:16:35.576Z,22.50
2022-08-17T05:17:35.561Z,22.50
2022-08-17T05:18:35.554Z,22.50
2022-08-17T05:19:35.553Z,22.50
2022-08-17T05:20:35.547Z,22.50
2022-08-17T05:21:35.546Z,22.50
2022-08-17T05:22:35.540Z,22.50
2022-08-17T05:23:43.070Z,22.50
2022-08-17T05:24:39.091Z,22.50
2022-08-17T05:25:36.198Z,22.50
2022-08-17T05:26:36.523Z,22.50
2022-08-17T05:27:36.122Z,22.50
2022-08-17T05:28:35.515Z,22.50
2022-08-17T05:29:36.031Z,22.50
2022-08-17T05:30:35.507Z,16.88
2022-08-17T05:31:35.505Z,16.88
2022-08-17T05:32:37.951Z,16.88
2022-08-17T05:33:35.497Z,11.25
2022-08-17T05:34:35.492Z,11.25
2022-08-17T05:35:35.491Z,11.25
2022-08-17T05:36:42.632Z,11.25
2022-08-17T05:37:35.483Z,11.25
2022-08-17T05:38:35.478Z,11.25
2022-08-17T05:39:35.499Z,11.25
2022-08-17T05:40:35.468Z,11.25
2022-08-17T05:41:35.467Z,11.25
2022-08-17T05:42:35.462Z,11.25
2022-08-17T05:43:35.459Z,16.88
2022-08-17T05:44:35.452Z,16.88
2022-08-17T05:45:55.755Z,16.88
2022-08-17T05:46:35.446Z,16.88
2022-08-17T05:47:35.443Z,16.88
2022-08-17T05:48:40.159Z,22.50
2022-08-17T05:49:35.436Z,22.50
2022-08-17T05:50:35.430Z,22.50
2022-08-17T05:51:35.426Z,28.13
2022-08-17T05:52:35.424Z,28.13
2022-08-17T05:53:35.717Z,33.75
2022-08-17T05:54:35.414Z,33.75
2022-08-17T05:55:35.411Z,33.75
2022-08-17T05:56:35.409Z,39.38
2022-08-17T05:57:35.403Z,45.00
2022-08-17T05:58:35.399Z,45.00
2022-08-17T05:59:35.395Z,45.00
2022-08-17T06:00:35.390Z,45.00
2022-08-17T06:01:35.479Z,45.00
2022-08-17T06:02:35.385Z,50.63
2022-08-17T06:03:35.382Z,50.63
2022-08-17T06:04:35.374Z,56.25
2022-08-17T06:05:35.373Z,56.25
2022-08-17T06:06:35.367Z,56.25
2022-08-17T06:07:35.365Z,56.25
2022-08-17T06:08:35.364Z,50.63
2022-08-17T06:09:35.357Z,56.25
2022-08-17T06:10:35.354Z,56.25
2022-08-17T06:11:35.388Z,56.25
2022-08-17T06:12:35.347Z,56.25
2022-08-17T06:13:35.343Z,56.25
2022-08-17T06:14:35.338Z,56.25
2022-08-17T06:15:35.337Z,56.25
2022-08-17T06:16:35.331Z,56.25
2022-08-17T06:17:35.330Z,56.25
2022-08-17T06:18:35.326Z,61.88
2022-08-17T06:19:35.322Z,56.25
2022-08-17T06:20:35.317Z,56.25
2022-08-17T06:21:35.316Z,61.88
2022-08-17T06:22:35.311Z,61.88
2022-08-17T06:23:35.309Z,67.50
2022-08-17T06:24:35.309Z,61.88
2022-08-17T06:25:35.320Z,61.88
2022-08-17T06:26:39.590Z,61.88
2022-08-17T06:27:35.295Z,56.25
2022-08-17T06:28:35.290Z,56.25
2022-08-17T06:29:35.290Z,56.25
2022-08-17T06:30:59.365Z,50.63
2022-08-17T06:31:35.281Z,50.63
2022-08-17T06:32:35.280Z,50.63
2022-08-17T06:33:35.279Z,50.63
2022-08-17T06:34:35.273Z,73.13
2022-08-17T06:35:35.271Z,90.00
2022-08-17T06:36:35.265Z,95.63
2022-08-17T06:37:35.267Z,106.88
2022-08-17T06:38:38.431Z,112.50
2022-08-17T06:39:35.293Z,118.13
2022-08-17T06:40:35.254Z,123.75
2022-08-17T06:41:37.932Z,129.38
2022-08-17T06:42:54.959Z,135.00
2022-08-17T06:43:35.245Z,140.63
2022-08-17T06:44:43.371Z,140.63
2022-08-17T06:45:35.240Z,146.25
2022-08-17T06:46:35.236Z,140.63
2022-08-17T06:47:35.235Z,140.63
2022-08-17T06:48:35.231Z,135.00
2022-08-17T06:49:35.230Z,135.00
2022-08-17T06:50:35.224Z,135.00
2022-08-17T06:51:35.226Z,135.00
2022-08-17T06:52:55.667Z,135.00
2022-08-17T06:53:35.223Z,129.38
2022-08-17T06:54:35.217Z,129.38
2022-08-17T06:55:38.184Z,129.38
2022-08-17T06:56:54.855Z,129.38
2022-08-17T06:57:35.212Z,129.38
2022-08-17T06:58:35.210Z,129.38
2022-08-17T06:59:54.924Z,118.13
2022-08-17T07:00:35.312Z,112.50
2022-08-17T07:01:35.223Z,112.50
2022-08-17T07:03:02.076Z,112.50
2022-08-17T07:03:35.199Z,106.88
2022-08-17T07:04:35.196Z,101.25
2022-08-17T07:05:35.195Z,101.25
2022-08-17T07:06:38.077Z,101.25
2022-08-17T07:07:35.191Z,95.63
2022-08-17T07:08:35.535Z,90.00
2022-08-17T07:09:35.187Z,84.38
2022-08-17T07:10:35.195Z,84.38
2022-08-17T07:11:35.193Z,84.38
2022-08-17T07:12:35.189Z,84.38
2022-08-17T07:13:35.192Z,84.38
2022-08-17T07:14:35.188Z,78.75
2022-08-17T07:15:35.180Z,78.75
2022-08-17T07:16:35.287Z,78.75
2022-08-17T07:17:46.814Z,84.38
2022-08-17T07:18:35.169Z,84.38
2022-08-17T07:19:35.169Z,90.00
2022-08-17T07:20:35.176Z,90.00
2022-08-17T07:21:35.166Z,84.38
2022-08-17T07:22:50.321Z,84.38
2022-08-17T07:23:35.159Z,90.00
2022-08-17T07:24:35.156Z,95.63
2022-08-17T07:25:35.157Z,112.50
2022-08-17T07:26:35.152Z,106.88
2022-08-17T07:27:35.153Z,101.25
2022-08-17T07:28:35.152Z,95.63
2022-08-17T07:29:35.148Z,90.00
2022-08-17T07:30:44.670Z,90.00
2022-08-17T07:31:35.150Z,90.00
2022-08-17T07:32:35.140Z,95.63
2022-08-17T07:33:35.146Z,101.25
2022-08-17T07:34:35.137Z,101.25
2022-08-17T07:35:40.673Z,118.13
2022-08-17T07:36:35.134Z,123.75
2022-08-17T07:37:35.133Z,112.50
2022-08-17T07:38:35.129Z,123.75
2022-08-17T07:39:35.194Z,129.38
2022-08-17T07:40:35.222Z,118.13
2022-08-17T07:41:58.650Z,123.75
2022-08-17T07:42:35.133Z,118.13
2022-08-17T07:43:35.123Z,118.13
2022-08-17T07:44:35.120Z,112.50
2022-08-17T07:45:35.119Z,112.50
2022-08-17T07:46:35.127Z,112.50
2022-08-17T07:47:35.201Z,118.13
2022-08-17T07:48:35.152Z,118.13
2022-08-17T07:49:35.114Z,129.38
2022-08-17T07:50:35.110Z,135.00
2022-08-17T07:51:35.110Z,135.00
2022-08-17T07:52:47.624Z,140.63
2022-08-17T07:53:35.107Z,146.25
2022-08-17T07:54:35.104Z,140.63
2022-08-17T07:55:35.117Z,140.63
2022-08-17T07:56:35.099Z,140.63
2022-08-17T07:57:35.105Z,135.00
2022-08-17T07:58:35.098Z,129.38
2022-08-17T07:59:35.107Z,112.50
2022-08-17T08:00:35.097Z,123.75
2022-08-17T08:01:39.632Z,129.38
2022-08-17T08:02:35.121Z,129.38
2022-08-17T08:03:35.094Z,129.38
2022-08-17T08:05:00.476Z,135.00
2022-08-17T08:05:50.608Z,135.00
2022-08-17T08:06:35.130Z,135.00
2022-08-17T08:07:35.091Z,135.00
2022-08-17T08:08:35.120Z,146.25
2022-08-17T08:09:35.089Z,151.88
2022-08-17T08:10:35.090Z,146.25
2022-08-17T08:11:35.090Z,151.88
2022-08-17T08:12:35.127Z,151.88
2022-08-17T08:13:35.225Z,146.25
2022-08-17T08:14:35.087Z,146.25
2022-08-17T08:15:35.084Z,146.25
2022-08-17T08:16:35.086Z,146.25
2022-08-17T08:17:35.084Z,140.63
2022-08-17T08:18:54.498Z,140.63
2022-08-17T08:19:35.082Z,140.63
2022-08-17T08:20:51.312Z,135.00
2022-08-17T08:21:35.082Z,135.00
2022-08-17T08:22:35.089Z,129.38
2022-08-17T08:23:35.083Z,129.38
2022-08-17T08:24:35.084Z,129.38
2022-08-17T08:25:35.083Z,129.38
2022-08-17T08:26:35.086Z,129.38
2022-08-17T08:27:35.081Z,123.75
2022-08-17T08:28:35.085Z,123.75
2022-08-17T08:29:35.082Z,123.75
2022-08-17T08:30:35.087Z,123.75
2022-08-17T08:31:37.753Z,123.75
2022-08-17T08:32:35.085Z,118.13
2022-08-17T08:33:35.082Z,123.75
2022-08-17T08:34:58.817Z,123.75
2022-08-17T08:35:35.081Z,123.75
2022-08-17T08:37:12.856Z,123.75
2022-08-17T08:37:40.515Z,123.75
2022-08-17T08:38:35.084Z,123.75
2022-08-17T08:39:35.149Z,123.75
2022-08-17T08:40:35.083Z,123.75
2022-08-17T08:41:35.081Z,123.75
2022-08-17T08:42:35.084Z,123.75
2022-08-17T08:43:35.080Z,123.75
2022-08-17T08:45:00.687Z,123.75
2022-08-17T08:45:35.080Z,118.13
2022-08-17T08:46:35.082Z,118.13
2022-08-17T08:47:35.516Z,123.75
2022-08-17T08:48:56.982Z,123.75
2022-08-17T08:50:02.015Z,123.75
2022-08-17T08:50:38.251Z,123.75
2022-08-17T08:51:35.098Z,123.75
2022-08-17T08:52:35.081Z,118.13
2022-08-17T08:53:35.082Z,123.75
2022-08-17T08:54:35.080Z,123.75
2022-08-17T08:55:35.082Z,123.75
2022-08-17T08:56:35.098Z,123.75
2022-08-17T08:57:35.096Z,123.75
2022-08-17T08:58:41.807Z,123.75
2022-08-17T08:59:35.080Z,129.38
2022-08-17T09:00:35.085Z,129.38
2022-08-17T09:01:35.160Z,129.38
2022-08-17T09:02:35.182Z,129.38
2022-08-17T09:03:51.912Z,129.38
2022-08-17T09:05:02.797Z,129.38
2022-08-17T09:05:35.077Z,123.75
2022-08-17T09:06:39.371Z,123.75
2022-08-17T09:07:35.075Z,123.75
2022-08-17T09:08:35.078Z,123.75
2022-08-17T09:09:35.075Z,123.75
2022-08-17T09:10:35.080Z,123.75
2022-08-17T09:11:35.076Z,123.75
2022-08-17T09:12:35.083Z,123.75
2022-08-17T09:13:35.079Z,118.13
2022-08-17T09:15:35.078Z,123.75
2022-08-17T09:16:35.074Z,123.75
2022-08-17T09:17:35.076Z,123.75
2022-08-17T09:19:00.613Z,123.75
2022-08-17T09:19:35.077Z,123.75
2022-08-17T09:20:35.078Z,118.13
2022-08-17T09:21:35.078Z,118.13
2022-08-17T09:22:35.074Z,118.13
2022-08-17T09:23:35.074Z,118.13
2022-08-17T09:24:35.074Z,118.13
2022-08-17T09:25:35.075Z,118.13
2022-08-17T09:26:35.074Z,118.13
2022-08-17T09:27:35.077Z,118.13
2022-08-17T09:28:35.217Z,118.13
2022-08-17T09:29:35.261Z,118.13
2022-08-17T09:30:35.114Z,118.13
2022-08-17T09:31:35.129Z,118.13
2022-08-17T09:32:35.117Z,118.13
2022-08-17T09:33:35.119Z,118.13
2022-08-17T09:34:35.083Z,118.13
2022-08-17T09:35:36.891Z,112.50
2022-08-17T09:36:35.077Z,118.13
2022-08-17T09:37:35.085Z,123.75
2022-08-17T09:38:35.077Z,118.13
2022-08-17T09:39:35.129Z,118.13
2022-08-17T09:40:35.076Z,118.13
2022-08-17T09:41:35.078Z,101.25
2022-08-17T09:42:35.077Z,101.25
2022-08-17T09:43:35.080Z,90.00
2022-08-17T09:44:35.079Z,118.13
2022-08-17T09:45:35.084Z,101.25
2022-08-17T09:46:35.082Z,123.75
2022-08-17T09:47:35.086Z,123.75
2022-08-17T09:48:35.082Z,101.25
2022-08-17T09:49:35.084Z,90.00
2022-08-17T09:51:03.527Z,112.50
2022-08-17T09:51:35.085Z,123.75
2022-08-17T09:52:35.097Z,129.38
2022-08-17T09:53:35.086Z,129.38
2022-08-17T09:54:39.592Z,129.38
2022-08-17T09:55:35.101Z,129.38
2022-08-17T09:56:35.113Z,129.38
2022-08-17T09:57:35.090Z,129.38
2022-08-17T09:58:35.116Z,129.38
2022-08-17T09:59:38.517Z,129.38
2022-08-17T10:00:35.089Z,123.75
2022-08-17T10:01:35.228Z,123.75
2022-08-17T10:02:35.092Z,112.50
2022-08-17T10:03:35.091Z,95.63
2022-08-17T10:04:35.093Z,90.00
2022-08-17T10:05:35.093Z,106.88
2022-08-17T10:06:35.092Z,118.13
2022-08-17T10:07:35.094Z,129.38
2022-08-17T10:08:35.092Z,135.00
2022-08-17T10:09:35.099Z,135.00
2022-08-17T10:10:35.121Z,135.00
2022-08-17T10:11:35.095Z,140.63
2022-08-17T10:12:35.097Z,129.38
2022-08-17T10:13:35.101Z,135.00
2022-08-17T10:14:36.487Z,135.00
2022-08-17T10:15:35.100Z,101.25
2022-08-17T10:16:35.100Z,135.00
2022-08-17T10:17:35.104Z,135.00
2022-08-17T10:18:35.111Z,135.00
2022-08-17T10:19:35.104Z,95.63
2022-08-17T10:20:35.109Z,118.13
2022-08-17T10:21:35.109Z,135.00
2022-08-17T10:22:37.922Z,135.00
2022-08-17T10:23:35.160Z,135.00
2022-08-17T10:24:35.110Z,135.00
2022-08-17T10:25:53.463Z,135.00
2022-08-17T10:26:43.059Z,135.00
2022-08-17T10:27:35.115Z,135.00
2022-08-17T10:28:35.117Z,135.00
2022-08-17T10:29:47.317Z,135.00
2022-08-17T10:30:35.218Z,135.00
2022-08-17T10:31:36.174Z,123.75
2022-08-17T10:32:35.118Z,118.13
2022-08-17T10:33:35.122Z,118.13
2022-08-17T10:34:38.785Z,118.13
2022-08-17T10:35:35.224Z,123.75
2022-08-17T10:36:35.124Z,101.25
2022-08-17T10:37:35.128Z,95.63
2022-08-17T10:38:35.126Z,95.63
2022-08-17T10:39:35.207Z,95.63
2022-08-17T10:40:35.128Z,106.88
2022-08-17T10:41:40.044Z,112.50
2022-08-17T10:42:35.232Z,112.50
2022-08-17T10:43:35.133Z,112.50
2022-08-17T10:44:38.659Z,118.13
2022-08-17T10:45:35.154Z,112.50
2022-08-17T10:46:35.349Z,112.50
2022-08-17T10:47:54.752Z,112.50
2022-08-17T10:48:35.136Z,112.50
2022-08-17T10:49:35.144Z,106.88
2022-08-17T10:50:35.141Z,106.88
2022-08-17T10:51:35.156Z,106.88
2022-08-17T10:52:35.144Z,106.88
2022-08-17T10:53:35.148Z,106.88
2022-08-17T10:54:35.154Z,106.88
2022-08-17T10:55:35.146Z,106.88
2022-08-17T10:56:35.146Z,106.88
2022-08-17T10:57:35.151Z,101.25
2022-08-17T10:58:35.148Z,112.50
2022-08-17T10:59:35.149Z,106.88
2022-08-17T11:00:35.273Z,112.50
2022-08-17T11:01:35.213Z,118.13
2022-08-17T11:02:35.152Z,123.75
2022-08-17T11:03:35.153Z,123.75
2022-08-17T11:04:35.154Z,123.75
2022-08-17T11:05:37.943Z,140.63
2022-08-17T11:06:35.156Z,168.75
2022-08-17T11:07:35.169Z,135.00
2022-08-17T11:08:35.159Z,140.63
2022-08-17T11:09:35.159Z,146.25
2022-08-17T11:10:35.158Z,140.63
2022-08-17T11:11:35.161Z,140.63
2022-08-17T11:12:35.160Z,140.63
2022-08-17T11:13:35.164Z,151.88
2022-08-17T11:14:35.163Z,146.25
2022-08-17T11:15:35.164Z,151.88
2022-08-17T11:16:35.164Z,146.25
2022-08-17T11:17:35.175Z,140.63
2022-08-17T11:18:35.169Z,135.00
2022-08-17T11:19:35.171Z,135.00
2022-08-17T11:20:35.178Z,140.63
2022-08-17T11:21:35.174Z,135.00
2022-08-17T11:22:35.176Z,135.00
2022-08-17T11:23:35.175Z,135.00
2022-08-17T11:24:35.178Z,135.00
2022-08-17T11:27:35.290Z,146.25
2022-08-17T11:28:35.232Z,168.75
2022-08-17T11:29:35.188Z,151.88
2022-08-17T11:30:35.389Z,168.75
2022-08-17T11:31:38.417Z,151.88
2022-08-17T11:32:35.189Z,163.13
2022-08-17T11:33:36.601Z,168.75
2022-08-17T11:34:35.196Z,151.88
2022-08-17T11:35:35.208Z,135.00
2022-08-17T11:36:35.201Z,135.00
2022-08-17T11:37:35.200Z,129.38
2022-08-17T11:38:35.202Z,135.00
2022-08-17T11:39:35.264Z,129.38
2022-08-17T11:40:35.207Z,129.38
2022-08-17T11:41:35.210Z,146.25
2022-08-17T11:42:35.414Z,135.00
2022-08-17T11:43:39.537Z,140.63
2022-08-17T11:44:35.213Z,146.25
2022-08-17T11:45:35.220Z,180.00
2022-08-17T11:46:35.218Z,151.88
2022-08-17T11:47:35.422Z,180.00
2022-08-17T11:48:35.667Z,185.63
2022-08-17T11:49:35.226Z,174.38
2022-08-17T11:50:35.227Z,180.00
2022-08-17T11:51:35.230Z,163.13
2022-08-17T11:52:35.232Z,163.13
2022-08-17T11:53:35.234Z,151.88
2022-08-17T11:54:35.237Z,129.38
2022-08-17T11:55:38.410Z,123.75
2022-08-17T11:56:35.239Z,129.38
2022-08-17T11:57:35.244Z,135.00
2022-08-17T11:58:35.257Z,140.63
2022-08-17T11:59:35.248Z,140.63
2022-08-17T12:00:35.247Z,140.63
2022-08-17T12:01:35.456Z,140.63
2022-08-17T12:02:35.350Z,123.75
2022-08-17T12:03:35.256Z,123.75
2022-08-17T12:04:35.387Z,135.00
2022-08-17T12:05:35.286Z,151.88
2022-08-17T12:06:35.262Z,168.75
2022-08-17T12:07:35.269Z,168.75
2022-08-17T12:08:35.269Z,168.75
2022-08-17T12:09:35.270Z,168.75
2022-08-17T12:10:35.273Z,129.38
2022-08-17T12:12:10.927Z,129.38
2022-08-17T12:12:35.276Z,157.50
2022-08-17T12:13:39.586Z,151.88
2022-08-17T12:15:08.370Z,146.25
2022-08-17T12:16:35.285Z,135.00
2022-08-17T12:17:40.194Z,112.50
2022-08-17T12:18:35.292Z,106.88
2022-08-17T12:19:35.292Z,112.50
2022-08-17T12:20:35.301Z,106.88
2022-08-17T12:21:35.297Z,112.50
2022-08-17T12:22:35.303Z,118.13
2022-08-17T12:23:35.302Z,118.13
2022-08-17T12:24:35.304Z,123.75
2022-08-17T12:25:35.304Z,123.75
2022-08-17T12:26:35.309Z,146.25
2022-08-17T12:27:46.174Z,146.25
2022-08-17T12:28:35.311Z,140.63
2022-08-17T12:29:39.156Z,146.25
2022-08-17T12:30:35.315Z,135.00
2022-08-17T12:31:35.320Z,129.38
2022-08-17T12:32:35.319Z,129.38
2022-08-17T12:33:35.373Z,157.50
2022-08-17T12:34:35.325Z,174.38
2022-08-17T12:35:35.431Z,174.38
2022-08-17T12:36:35.327Z,168.75
2022-08-17T12:37:35.332Z,174.38
2022-08-17T12:38:35.333Z,163.13
2022-08-17T12:39:35.392Z,168.75
2022-08-17T12:40:35.337Z,168.75
2022-08-17T12:41:35.342Z,168.75
2022-08-17T12:42:35.342Z,168.75
2022-08-17T12:43:35.346Z,168.75
2022-08-17T12:44:35.346Z,146.25
2022-08-17T12:45:35.348Z,157.50
2022-08-17T12:46:35.355Z,151.88
2022-08-17T12:47:35.365Z,151.88
2022-08-17T12:48:35.380Z,140.63
2022-08-17T12:49:35.365Z,118.13
2022-08-17T12:50:35.359Z,112.50
2022-08-17T12:51:35.361Z,112.50
2022-08-17T12:52:35.363Z,101.25
2022-08-17T12:53:35.368Z,90.00
2022-08-17T12:54:35.368Z,90.00